Latest Weather Observations for Alva Beach

IDQ60801

Issued at 8:22 pm EST Friday 26 February 2021 (issued every 10 minutes, with the page automatically refreshed every 10 minutes)

About weather observations | Map of weather stations | Latest weather observations for QLD | Other Formats
Station Details ID: 033295 Name: ALVA BEACH Lat: -19.46 Lon: 147.48 Height: 7.5 m
Data from the previous 72 hours. | See also: Recent months at Alva Beach
Date/Time
EST
Temp
°C
App
Temp
°C
Dew
Point
°C
Rel
Hum
%
Delta-T
°C
Wind Press
QNH
hPa
Press
MSL
hPa
Rain since
9am
mm
Dir  Spd
km/h
Gust
km/h
Spd
kts
Gust
kts
26/08:00pm 25.9 28.1 24.3 91 1.1 SE 20 30 11 16 1006.9 1006.9 6.2
26/07:30pm 25.8 27.9 23.8 89 1.4 SE 19 32 10 17 1006.5 1006.5 6.2
26/07:00pm 25.6 28.1 23.8 90 1.2 SE 17 28 9 15 1006.2 1006.2 6.2
26/06:30pm 25.6 27.6 24.0 91 1.1 SE 20 32 11 17 1006.0 1006.0 6.2
26/06:00pm 25.8 28.3 24.4 92 1.0 SE 19 32 10 17 1005.9 1005.9 6.2
26/05:30pm 25.6 28.0 24.2 92 1.0 SE 19 32 10 17 1005.7 1005.7 6.0
26/05:00pm 25.8 27.7 24.4 92 1.0 SE 22 35 12 19 1005.2 1005.2 6.0
26/04:30pm 25.7 26.6 23.9 90 1.2 SE 26 39 14 21 1004.8 1004.8 6.0
26/04:00pm 25.9 26.6 24.3 91 1.1 SE 28 43 15 23 1004.6 1004.6 5.8
26/03:30pm 26.1 27.1 24.7 92 1.0 ESE 28 41 15 22 1004.5 1004.5 5.8
26/03:00pm 25.9 27.2 24.7 93 0.8 ESE 26 35 14 19 1004.5 1004.5 5.8
26/02:30pm 25.6 26.6 24.2 92 1.0 ESE 26 43 14 23 1004.9 1004.9 5.4
26/02:00pm 25.6 27.0 24.2 92 1.0 ESE 24 37 13 20 1005.2 1005.2 4.8
26/01:30pm 26.1 27.8 24.7 92 1.0 ESE 24 33 13 18 1005.6 1005.6 2.0
26/01:00pm 26.3 28.0 24.7 91 1.1 ESE 24 35 13 19 1005.7 1005.7 1.2
26/12:30pm 26.9 28.9 24.5 87 1.7 E 22 33 12 18 1006.0 1006.0 0.6
26/12:00pm 27.3 30.0 25.1 88 1.5 E 20 30 11 16 1006.3 1006.3 0.4
26/11:30am 27.3 30.3 24.6 85 1.9 E 17 24 9 13 1006.7 1006.7 0.2
26/11:00am 27.3 28.9 23.3 79 2.7 E 20 32 11 17 1007.1 1007.1 0.0
26/10:30am 27.7 29.8 23.7 79 2.7 E 19 28 10 15 1007.1 1007.1 0.0
26/10:00am 27.8 29.7 23.8 79 2.8 E 20 28 11 15 1007.4 1007.4 0.0
26/09:30am 27.6 30.2 24.6 84 2.1 ESE 19 26 10 14 1007.2 1007.2 0.0
26/09:00am 27.5 29.6 23.7 80 2.6 ESE 19 28 10 15 1007.3 1007.3 0.4
26/08:30am 27.2 28.6 22.8 77 3.0 E 20 33 11 18 1007.2 1007.2 0.4
26/08:00am 27.9 29.7 23.3 76 3.2 E 19 26 10 14 1007.0 1007.0 0.4
26/07:30am 27.8 29.8 23.0 75 3.3 E 17 24 9 13 1007.0 1007.0 0.4
26/07:00am 27.5 29.4 22.7 75 3.3 E 17 28 9 15 1006.6 1006.6 0.4
26/06:30am 27.2 28.6 21.9 73 3.6 E 17 26 9 14 1006.1 1006.1 0.4
26/06:00am 26.9 28.2 22.3 76 3.1 E 19 26 10 14 1005.6 1005.6 0.4
26/05:30am 27.0 28.5 23.0 79 2.7 E 20 30 11 16 1005.2 1005.2 0.4
26/05:00am 27.4 28.7 23.4 79 2.7 E 22 33 12 18 1005.2 1005.2 0.4
26/04:30am 26.9 27.9 24.2 85 1.9 E 26 33 14 18 1005.0 1005.0 0.4
26/04:00am 27.3 28.8 23.1 78 2.9 ESE 20 30 11 16 1004.8 1004.8 0.4
26/03:30am 26.9 28.8 23.8 83 2.1 E 20 30 11 16 1004.7 1004.7 0.4
26/03:00am 26.8 28.6 23.3 81 2.4 E 19 30 10 16 1004.8 1004.8 0.4
26/02:30am 27.0 27.1 22.6 77 3.0 E 26 37 14 20 1005.0 1005.0 0.4
26/02:00am 26.8 28.1 23.3 81 2.4 E 22 33 12 18 1005.4 1005.4 0.4
26/01:30am 26.3 27.8 24.3 89 1.4 ENE 24 32 13 17 1005.9 1005.9 0.4
26/01:00am 26.2 26.8 24.2 89 1.4 ENE 28 35 15 19 1006.4 1006.4 0.2
26/12:30am 26.4 27.4 24.8 91 1.1 ENE 28 32 15 17 1006.9 1006.9 0.0
26/12:00am 26.5 26.8 24.3 88 1.5 ENE 30 35 16 19 1007.4 1007.4 0.0
 
Date/Time
EST
Temp
°C
App
Temp
°C
Dew
Point
°C
Rel
Hum
%
Delta-T
°C
Wind Press
QNH
hPa
Press
MSL
hPa
Rain since
9am
mm
Dir  Spd
km/h
Gust
km/h
Spd
kts
Gust
kts
25/11:30pm 26.8 27.2 24.5 87 1.6 ENE 30 35 16 19 1007.7 1007.7 0.0
25/11:00pm 26.2 25.9 23.3 84 2.0 ENE 30 39 16 21 1007.8 1007.8 0.0
25/10:30pm 25.8 24.9 22.9 84 2.0 E 32 41 17 22 1008.1 1008.1 0.0
25/10:00pm 26.5 25.0 23.4 83 2.1 ENE 37 46 20 25 1008.4 1008.4 0.0
25/09:30pm 27.3 27.7 25.3 89 1.4 ENE 33 48 18 26 1008.0 1008.0 0.0
25/09:00pm 27.7 28.7 23.5 78 2.9 E 24 37 13 20 1007.7 1007.7 0.0
25/08:30pm 27.7 28.4 24.9 85 2.0 ENE 30 35 16 19 1007.5 1007.5 0.0
25/08:00pm 27.8 28.9 25.0 85 2.0 ENE 28 32 15 17 1007.2 1007.2 0.0
25/07:30pm 27.5 28.1 24.1 82 2.3 ENE 28 35 15 19 1006.9 1006.9 0.0
25/07:00pm 27.7 27.4 23.3 77 3.0 ENE 30 35 16 19 1006.7 1006.7 0.0
25/06:30pm 27.2 27.8 24.7 86 1.7 ENE 30 35 16 19 1006.2 1006.2 0.0
25/06:00pm 28.0 27.2 24.0 79 2.8 ENE 35 44 19 24 1005.8 1005.8 0.0
25/05:30pm 27.6 26.8 24.0 81 2.5 ENE 35 43 19 23 1005.6 1005.6 0.0
25/05:00pm 27.5 25.9 24.6 84 2.0 ENE 41 48 22 26 1005.3 1005.3 0.0
25/04:30pm 27.7 26.7 24.3 82 2.4 ENE 37 46 20 25 1005.0 1005.0 0.0
25/04:00pm 28.0 28.1 24.6 82 2.4 ENE 32 37 17 20 1005.0 1005.0 0.0
25/03:30pm 28.1 28.5 24.5 81 2.5 E 30 43 16 23 1005.1 1005.1 0.0
25/03:00pm 29.5 31.7 24.8 76 3.3 E 22 30 12 16 1005.3 1005.3 0.0
25/02:30pm 29.5 31.5 23.9 72 3.9 ESE 20 30 11 16 1005.5 1005.5 0.0
25/02:00pm 29.8 32.3 24.7 74 3.6 ESE 20 30 11 16 1005.9 1005.9 0.0
25/01:30pm 30.5 33.8 25.1 73 3.8 ESE 17 26 9 14 1006.2 1006.2 0.0
25/01:00pm 30.2 32.4 23.9 69 4.4 ESE 19 28 10 15 1006.9 1006.9 0.0
25/12:30pm 30.4 32.7 24.1 69 4.4 ESE 19 26 10 14 1007.3 1007.3 0.0
25/12:00pm 30.0 32.2 24.2 71 4.0 ESE 20 30 11 16 1007.9 1007.9 0.0
25/11:30am 30.1 32.0 23.8 69 4.4 ESE 20 30 11 16 1008.2 1008.2 0.0
25/11:00am 29.9 31.9 23.6 69 4.4 ESE 19 30 10 16 1008.6 1008.6 0.0
25/10:30am 29.7 31.7 23.9 71 4.0 E 20 28 11 15 1008.8 1008.8 0.0
25/10:00am 29.4 31.2 23.6 71 4.0 ESE 20 32 11 17 1008.9 1008.9 0.0
25/09:30am 29.1 30.9 23.5 72 3.9 ESE 20 30 11 16 1008.6 1008.6 0.0
25/09:00am 28.9 29.8 22.6 69 4.3 E 22 32 12 17 1008.4 1008.4 0.0
25/08:30am 28.8 30.6 23.5 73 3.6 E 20 28 11 15 1008.1 1008.1 0.0
25/08:00am 28.8 31.9 24.8 79 2.8 ESE 17 26 9 14 1007.9 1007.9 0.0
25/07:30am 28.2 30.7 23.8 77 3.0 E 17 28 9 15 1007.6 1007.6 0.0
25/07:00am 27.9 30.5 23.9 79 2.8 ESE 17 26 9 14 1007.1 1007.1 0.0
25/06:30am 27.5 29.8 23.5 79 2.7 E 17 28 9 15 1006.7 1006.7 0.0
25/06:00am 27.2 30.2 23.4 80 2.6 E 13 19 7 10 1006.6 1006.6 0.0
25/05:30am 27.4 30.7 23.8 81 2.5 E 13 17 7 9 1006.5 1006.5 0.0
25/05:00am 27.3 29.4 23.1 78 2.9 E 17 24 9 13 1006.3 1006.3 0.0
25/04:30am 27.4 28.0 22.8 76 3.1 E 24 30 13 16 1006.2 1006.2 0.0
25/04:00am 27.2 28.5 22.6 76 3.1 E 20 32 11 17 1006.0 1006.0 0.0
25/03:30am 27.5 29.1 23.9 81 2.5 E 22 32 12 17 1005.7 1005.7 0.0
25/03:00am 27.5 28.6 23.7 80 2.6 E 24 33 13 18 1005.7 1005.7 0.0
25/02:30am 27.5 28.7 23.9 81 2.5 E 24 32 13 17 1006.0 1006.0 0.0
25/02:00am 27.7 29.2 23.7 79 2.8 E 22 30 12 16 1006.6 1006.6 0.0
25/01:30am 27.5 28.7 23.9 81 2.5 E 24 28 13 15 1006.7 1006.7 0.0
25/01:00am 27.8 29.2 24.2 81 2.5 E 24 32 13 17 1007.2 1007.2 0.0
25/12:30am 28.0 27.9 24.2 80 2.6 ENE 32 39 17 21 1007.4 1007.4 0.0
25/12:00am 28.1 29.8 24.7 82 2.4 E 24 32 13 17 1007.7 1007.7 0.0
 
Date/Time
EST
Temp
°C
App
Temp
°C
Dew
Point
°C
Rel
Hum
%
Delta-T
°C
Wind Press
QNH
hPa
Press
MSL
hPa
Rain since
9am
mm
Dir  Spd
km/h
Gust
km/h
Spd
kts
Gust
kts
24/11:30pm 28.1 29.7 24.5 81 2.5 E 24 33 13 18 1008.0 1008.0 0.0
24/11:00pm 28.1 30.2 24.1 79 2.8 E 20 30 11 16 1008.1 1008.1 0.0
24/10:30pm 28.2 29.6 24.2 79 2.8 E 24 35 13 19 1008.3 1008.3 0.0
24/10:00pm 28.3 30.8 24.7 81 2.5 E 20 28 11 15 1008.3 1008.3 0.0
24/09:30pm 28.3 30.1 24.3 79 2.8 E 22 32 12 17 1008.2 1008.2 0.0
24/09:00pm 28.4 30.9 24.8 81 2.5 E 20 30 11 16 1008.3 1008.3 0.0
24/08:30pm 28.3 30.5 24.3 79 2.8 E 20 32 11 17 1007.9 1007.9 0.0
24/08:00pm 28.5 30.2 24.7 80 2.7 E 24 33 13 18 1007.9 1007.9 0.0
24/07:30pm 28.6 27.9 24.2 77 3.1 E 35 44 19 24 1007.4 1007.4 0.0
24/07:00pm 28.6 28.3 24.8 80 2.7 E 35 44 19 24 1007.1 1007.1 0.0
24/06:30pm 28.6 28.5 24.6 79 2.8 E 33 44 18 24 1006.7 1006.7 0.0
24/06:00pm 29.0 30.0 24.8 78 2.9 E 28 37 15 20 1006.7 1006.7 0.0
24/05:30pm 29.0 31.0 25.2 80 2.7 E 24 33 13 18 1006.4 1006.4 0.0
24/05:00pm 29.6 31.0 25.4 78 3.0 E 28 33 15 18 1006.0 1006.0 0.0
24/04:30pm 29.8 32.6 25.3 77 3.2 E 20 28 11 15 1005.9 1005.9 0.0
24/04:00pm 29.9 32.4 24.5 73 3.8 E 19 26 10 14 1006.0 1006.0 0.0
24/03:30pm 30.2 32.8 23.9 69 4.4 E 17 24 9 13 1006.0 1006.0 0.0
24/03:00pm 30.2 32.7 24.4 71 4.1 E 19 24 10 13 1006.2 1006.2 0.0
24/02:30pm 30.4 33.3 24.5 70 4.1 E 17 24 9 13 1006.4 1006.4 0.0
24/02:00pm 30.1 32.6 24.5 72 3.9 E 19 28 10 15 1006.7 1006.7 0.0
24/01:30pm 30.2 32.5 24.1 70 4.2 E 19 32 10 17 1007.1 1007.1 0.0
24/01:00pm 30.2 33.2 24.6 72 3.9 E 17 26 9 14 1007.6 1007.6 0.0
24/12:30pm 30.2 33.6 25.3 75 3.5 E 17 24 9 13 1008.3 1008.3 0.0
24/12:00pm 30.6 34.7 25.2 73 3.8 E 13 20 7 11 1008.7 1008.7 0.0
24/11:30am 30.0 33.9 25.5 77 3.2 E 15 20 8 11 1009.0 1009.0 0.0
24/11:00am 30.2 34.1 24.8 73 3.8 ESE 13 20 7 11 1009.3 1009.3 0.0
24/10:30am 29.6 33.3 25.1 77 3.2 ESE 15 20 8 11 1009.5 1009.5 0.0
24/10:00am 29.9 34.1 25.9 79 2.8 ESE 15 28 8 15 1009.6 1009.6 0.0
24/09:30am 29.7 33.6 25.4 78 3.0 ESE 15 24 8 13 1009.4 1009.4 0.0
24/09:00am 29.6 33.6 25.1 77 3.2 ESE 13 19 7 10 1009.4 1009.4 0.0
24/08:30am 28.4 32.9 25.2 83 2.2 SSE 11 15 6 8 1009.2 1009.2 0.0
24/08:00am 27.2 32.6 26.0 93 0.8 SSW 9 13 5 7 1008.9 1008.9 0.0
24/07:30am 26.4 31.5 25.0 92 1.0 SSW 7 13 4 7 1008.6 1008.6 0.0
24/07:00am 26.6 31.6 25.4 93 0.8 SSW 9 13 5 7 1008.1 1008.1 0.0
24/06:30am 25.7 30.6 24.7 94 0.7 SSW 7 9 4 5 1007.4 1007.4 0.0
24/06:00am 26.2 31.4 24.8 92 1.0 SSW 6 7 3 4 1007.1 1007.1 0.0
24/05:30am 26.8 32.5 25.0 90 1.3 E 4 9 2 5 1006.9 1006.9 0.0
24/05:00am 27.2 31.8 25.4 90 1.3 NE 11 13 6 7 1006.3 1006.3 0.0
24/04:30am 27.0 31.5 25.2 90 1.3 NNE 11 13 6 7 1006.1 1006.1 0.0
24/04:00am 27.0 31.5 25.2 90 1.3 NNE 11 15 6 8 1005.9 1005.9 0.0
24/03:30am 27.2 31.1 25.4 90 1.3 NE 15 19 8 10 1006.0 1006.0 0.0
24/03:00am 26.8 31.0 25.4 92 1.0 NNE 13 15 7 8 1005.9 1005.9 0.0
24/02:30am 26.7 32.1 25.1 91 1.1 NNE 6 9 3 5 1006.3 1006.3 0.0
24/02:00am 27.0 31.9 25.2 90 1.3 NNE 9 11 5 6 1006.6 1006.6 0.0
24/01:30am 27.4 32.0 25.4 89 1.4 NE 11 13 6 7 1006.8 1006.8 0.0
24/01:00am 27.3 32.7 25.5 90 1.3 N 7 13 4 7 1007.0 1007.0 0.0
24/12:30am 27.0 33.6 25.2 90 1.3 CALM 0 6 0 3 1007.4 1007.4 0.0
24/12:00am 27.3 32.1 25.7 91 1.1 NNE 11 13 6 7 1007.4 1007.4 0.0
 
Date/Time
EST
Temp
°C
App
Temp
°C
Dew
Point
°C
Rel
Hum
%
Delta-T
°C
Wind Press
QNH
hPa
Press
MSL
hPa
Rain since
9am
mm
Dir  Spd
km/h
Gust
km/h
Spd
kts
Gust
kts
23/11:30pm 27.3 32.5 25.7 91 1.1 NNE 9 13 5 7 1007.5 1007.5 0.0
23/11:00pm 27.4 33.7 25.4 89 1.4 NNW 2 7 1 4 1007.7 1007.7 0.0
23/10:30pm 27.7 33.3 25.5 88 1.5 N 6 9 3 5 1007.6 1007.6 0.0
23/10:00pm 27.8 33.2 25.4 87 1.7 N 7 13 4 7 1007.3 1007.3 0.0
23/09:30pm 28.0 32.1 25.8 88 1.6 N 15 19 8 10 1006.6 1006.6 0.0
23/09:00pm 28.1 32.9 25.7 87 1.7 N 11 17 6 9 1006.3 1006.3 0.0
23/08:30pm 28.2 32.9 25.6 86 1.8 N 11 17 6 9 1006.6 1006.6 0.0

Other formats

Comma delimited format used in spreadsheet applications
http://www.bom.gov.au/fwo/IDQ60801/IDQ60801.95296.axf

JavaScript Object Notation format (JSON) in row-major order
http://www.bom.gov.au/fwo/IDQ60801/IDQ60801.95296.json

Data quality

Most of these data are generated automatically and are frequently updated. Quality checks on data are not normally performed. It is possible for incorrect values to appear. Refer to information at About Latest Weather Observations and please check the disclaimer before using these data.